Time;durP1;ratioP1;P1;durP2;ratioP2;P2;SDS_P1;SDS_P2;PMS_P1;PMS_P2;Temp;Humidity;BMP_temperature;BMP_pressure;BME280_temperature;BME280_humidity;BME280_pressure;Samples;Min_cycle;Max_cycle;Signal;HPM_P1;HPM_P2
2022/05/04 00:00:13;;;;;;;3.33;3.00;;;12.20;99.90;;;;;;5074824;28;20440;-43
2022/05/04 00:02:41;;;;;;;3.07;2.27;;;12.10;99.90;;;;;;5074593;28;20468;-43
2022/05/04 00:05:09;;;;;;;2.73;2.40;;;11.80;99.90;;;;;;5074502;28;20445;-43
2022/05/04 00:07:36;;;;;;;3.20;2.30;;;11.70;99.90;;;;;;5116169;22;20558;-44
2022/05/04 00:10:03;;;;;;;3.30;2.53;;;11.60;99.90;;;;;;5054438;28;20520;-44
2022/05/04 00:12:32;;;;;;;2.33;2.10;;;11.60;99.90;;;;;;5053895;28;20441;-44
2022/05/04 00:14:59;;;;;;;2.60;2.07;;;11.80;99.90;;;;;;5054567;28;20456;-44
2022/05/04 00:17:26;;;;;;;3.77;2.40;;;11.90;99.90;;;;;;5053929;28;20573;-44
2022/05/04 00:19:53;;;;;;;2.30;2.00;;;12.00;99.90;;;;;;5054233;28;20441;-43
2022/05/04 00:22:21;;;;;;;2.30;2.10;;;12.10;99.90;;;;;;5053838;28;20473;-49
2022/05/04 00:24:48;;;;;;;2.77;2.00;;;12.10;99.90;;;;;;5053973;28;20985;-44
2022/05/04 00:27:16;;;;;;;9.40;3.00;;;11.80;99.90;;;;;;5054289;28;20518;-45
2022/05/04 00:29:45;;;;;;;5.47;2.60;;;11.80;99.90;;;;;;5054164;28;20446;-44
2022/05/04 00:32:12;;;;;;;3.03;2.60;;;11.80;99.90;;;;;;5054023;28;20445;-44
2022/05/04 00:34:40;;;;;;;2.83;2.40;;;11.80;99.90;;;;;;5053780;28;20469;-44
2022/05/04 00:37:07;;;;;;;2.77;2.47;;;11.80;99.90;;;;;;5053662;28;20841;-44
2022/05/04 00:39:34;;;;;;;2.80;2.10;;;11.80;99.90;;;;;;5053770;28;20471;-44
2022/05/04 00:42:12;;;;;;;2.03;1.83;;;11.70;99.90;;;;;;5053978;28;20473;-47
2022/05/04 00:44:40;;;;;;;2.93;2.07;;;11.80;99.90;;;;;;5053560;28;20440;-44
2022/05/04 00:47:09;;;;;;;2.80;2.57;;;11.80;99.90;;;;;;5053278;28;20827;-44
2022/05/04 00:49:37;;;;;;;3.43;2.00;;;11.80;99.90;;;;;;5053647;28;20446;-44
2022/05/04 00:52:05;;;;;;;5.80;2.33;;;11.80;99.90;;;;;;5053429;28;20469;-44
2022/05/04 00:54:33;;;;;;;3.40;2.47;;;11.60;99.90;;;;;;5052964;28;20472;-46
2022/05/04 00:57:00;;;;;;;2.70;2.30;;;11.70;99.90;;;;;;5053582;28;20925;-44
2022/05/04 00:59:27;;;;;;;2.17;1.97;;;11.70;99.90;;;;;;5053387;28;20437;-44
2022/05/04 01:01:54;;;;;;;2.83;2.17;;;11.70;99.90;;;;;;5053464;28;20477;-44
2022/05/04 01:04:22;;;;;;;3.50;2.30;;;11.70;99.90;;;;;;5053177;28;20441;-45
2022/05/04 01:06:49;;;;;;;2.70;2.13;;;11.40;99.90;;;;;;5053096;28;20473;-44
2022/05/04 01:09:16;;;;;;;3.50;2.67;;;11.50;99.90;;;;;;5053057;28;20893;-44
2022/05/04 01:11:44;;;;;;;2.97;2.13;;;11.60;99.90;;;;;;5052757;28;20756;-44
2022/05/04 01:14:12;;;;;;;2.23;2.03;;;11.70;99.90;;;;;;5052953;28;20448;-44
2022/05/04 01:16:41;;;;;;;2.67;2.47;;;11.70;99.90;;;;;;5052843;28;20484;-48
2022/05/04 01:19:09;;;;;;;2.10;1.90;;;11.80;99.90;;;;;;5053135;28;20589;-44
2022/05/04 01:21:38;;;;;;;3.53;2.20;;;11.70;99.90;;;;;;5053019;28;20499;-44
2022/05/04 01:24:08;;;;;;;2.20;2.00;;;11.70;99.90;;;;;;5052463;28;20450;-44
2022/05/04 01:26:35;;;;;;;4.93;2.40;;;11.70;99.90;;;;;;5052731;28;20457;-44
2022/05/04 01:29:03;;;;;;;3.50;3.20;;;11.60;99.90;;;;;;5053060;28;20471;-43
2022/05/04 01:31:30;;;;;;;3.30;2.30;;;11.50;99.90;;;;;;5053022;28;20483;-46
2022/05/04 01:33:57;;;;;;;2.27;2.07;;;11.60;99.90;;;;;;5052809;28;20532;-44
2022/05/04 01:36:24;;;;;;;2.77;2.10;;;11.50;99.90;;;;;;5052714;28;21008;-43
2022/05/04 01:38:51;;;;;;;2.00;1.80;;;11.50;99.90;;;;;;5052413;28;20568;-46
2022/05/04 01:44:04;;;;;;;2.50;2.30;;;11.40;99.90;;;;;;5052536;28;21019;-45
2022/05/04 01:46:31;;;;;;;2.63;2.17;;;11.50;99.90;;;;;;5052181;28;21036;-48
2022/05/04 01:48:59;;;;;;;4.50;2.77;;;11.50;99.90;;;;;;5052589;28;20442;-44
2022/05/04 01:51:26;;;;;;;3.33;2.53;;;11.50;99.90;;;;;;5052395;28;20477;-46
2022/05/04 01:53:52;;;;;;;4.90;2.23;;;11.50;99.90;;;;;;5052093;28;20437;-44
2022/05/04 01:56:21;;;;;;;2.70;2.20;;;11.50;99.90;;;;;;5052547;28;20461;-44
2022/05/04 01:58:48;;;;;;;2.60;2.17;;;11.40;99.90;;;;;;5052332;28;21048;-44
2022/05/04 02:01:15;;;;;;;2.83;1.97;;;11.50;99.90;;;;;;5052293;28;20477;-44
2022/05/04 02:03:42;;;;;;;2.50;2.30;;;11.50;99.90;;;;;;5051646;28;20449;-44
2022/05/04 02:06:10;;;;;;;4.33;2.07;;;11.50;99.90;;;;;;5051794;28;20884;-44
2022/05/04 02:08:37;;;;;;;2.70;2.50;;;11.60;99.90;;;;;;5052050;28;20477;-47
2022/05/04 02:11:04;;;;;;;2.37;2.17;;;11.50;99.90;;;;;;5052022;28;20491;-44
2022/05/04 02:13:33;;;;;;;2.80;1.97;;;11.40;99.90;;;;;;5051292;28;20837;-45
2022/05/04 02:15:59;;;;;;;2.37;1.93;;;11.40;99.90;;;;;;5051937;28;20468;-45
2022/05/04 02:18:26;;;;;;;3.43;2.43;;;11.40;99.90;;;;;;5052104;28;20907;-44
2022/05/04 02:20:53;;;;;;;2.57;2.37;;;11.20;99.90;;;;;;5052175;28;20445;-48
2022/05/04 02:23:20;;;;;;;3.43;2.37;;;11.10;99.90;;;;;;5051685;28;20540;-44
2022/05/04 02:25:47;;;;;;;2.33;2.00;;;11.20;99.90;;;;;;5051784;28;20441;-44
2022/05/04 02:28:14;;;;;;;2.43;1.97;;;11.20;99.90;;;;;;5051707;28;20934;-47
2022/05/04 02:30:43;;;;;;;1.97;1.77;;;10.90;99.90;;;;;;5051987;28;20808;-44
2022/05/04 02:33:10;;;;;;;3.93;2.30;;;11.00;99.90;;;;;;5051383;28;20748;-43
2022/05/04 02:38:33;;;;;;;3.03;2.03;;;10.60;99.90;;;;;;5029099;28;20459;-45
2022/05/04 02:41:00;;;;;;;3.23;2.80;;;10.60;99.90;;;;;;5046070;28;20853;-44
2022/05/04 02:43:28;;;;;;;4.57;2.30;;;10.60;99.90;;;;;;5051471;28;20446;-48
2022/05/04 02:45:56;;;;;;;3.87;2.30;;;10.80;99.90;;;;;;5051708;28;20511;-44
2022/05/04 02:48:23;;;;;;;2.63;2.40;;;10.90;99.90;;;;;;5051608;28;20483;-44
2022/05/04 02:50:50;;;;;;;3.00;2.13;;;11.10;99.90;;;;;;5051417;28;20484;-44
2022/05/04 02:53:17;;;;;;;3.73;2.10;;;11.10;99.90;;;;;;5051249;28;20480;-43
2022/05/04 02:55:44;;;;;;;2.30;2.10;;;11.10;99.90;;;;;;5051133;28;20985;-44
2022/05/04 02:58:11;;;;;;;2.30;2.10;;;11.20;99.90;;;;;;5051373;28;20480;-43
2022/05/04 03:00:38;;;;;;;4.90;3.23;;;11.20;99.90;;;;;;5051407;28;20441;-48
2022/05/04 03:03:05;;;;;;;6.33;3.30;;;11.10;99.90;;;;;;5051569;28;20507;-44
2022/05/04 03:05:33;;;;;;;2.80;2.60;;;11.00;99.90;;;;;;5051127;28;20481;-46
2022/05/04 03:07:59;;;;;;;2.20;1.90;;;11.00;99.90;;;;;;5050940;28;20453;-44
2022/05/04 03:10:27;;;;;;;3.27;2.70;;;11.10;99.90;;;;;;5051565;28;20736;-44
2022/05/04 03:12:53;;;;;;;4.23;2.67;;;11.10;99.90;;;;;;5050941;28;20503;-44
2022/05/04 03:15:20;;;;;;;3.50;2.70;;;11.00;99.90;;;;;;5051145;28;20449;-44
2022/05/04 03:17:47;;;;;;;2.40;1.73;;;11.10;99.90;;;;;;5055048;28;20914;-45
2022/05/04 03:20:16;;;;;;;3.53;2.50;;;11.00;99.90;;;;;;5055234;28;20477;-46
2022/05/04 03:22:43;;;;;;;3.10;2.57;;;11.00;99.90;;;;;;5055083;28;20502;-44
2022/05/04 03:25:11;;;;;;;2.50;2.27;;;11.00;99.90;;;;;;5055308;28;20449;-49
2022/05/04 03:27:37;;;;;;;3.17;2.33;;;11.00;99.90;;;;;;5054958;28;20520;-43
2022/05/04 03:30:06;;;;;;;5.17;2.33;;;10.90;99.90;;;;;;5055261;28;20480;-45
2022/05/04 03:32:33;;;;;;;2.93;2.37;;;10.90;99.90;;;;;;5055012;28;20528;-44
2022/05/04 03:35:00;;;;;;;2.60;2.23;;;10.90;99.90;;;;;;5054972;28;20445;-46
2022/05/04 03:37:28;;;;;;;2.40;1.87;;;10.90;99.90;;;;;;5054819;28;20518;-44
2022/05/04 03:39:55;;;;;;;3.00;2.20;;;10.80;99.90;;;;;;5055122;28;20438;-44
2022/05/04 03:42:22;;;;;;;3.03;2.83;;;10.70;99.90;;;;;;5054691;28;20972;-44
2022/05/04 03:44:50;;;;;;;3.80;2.77;;;10.60;99.90;;;;;;5054916;28;20686;-47
2022/05/04 03:47:17;;;;;;;3.23;2.93;;;10.60;99.90;;;;;;5055000;28;21125;-44
2022/05/04 03:49:44;;;;;;;2.87;2.67;;;10.20;99.90;;;;;;5054853;28;20982;-44
2022/05/04 03:52:11;;;;;;;2.90;2.60;;;10.00;99.90;;;;;;5054869;28;20491;-44
2022/05/04 03:54:39;;;;;;;2.43;2.17;;;10.20;99.90;;;;;;5054647;28;20448;-44
2022/05/04 03:57:07;;;;;;;4.90;2.33;;;10.40;99.90;;;;;;5054912;28;20573;-44
2022/05/04 03:59:34;;;;;;;7.00;2.93;;;10.60;99.90;;;;;;5054616;28;20560;-44
2022/05/04 04:02:01;;;;;;;3.07;2.40;;;10.70;99.90;;;;;;5054505;28;20972;-44
2022/05/04 04:04:28;;;;;;;2.70;2.50;;;10.60;99.90;;;;;;5054491;28;20540;-48
2022/05/04 04:06:55;;;;;;;2.77;2.57;;;10.20;99.90;;;;;;5054550;28;20889;-44
2022/05/04 04:09:22;;;;;;;4.63;3.00;;;10.00;99.90;;;;;;5054365;28;20447;-43
2022/05/04 04:11:51;;;;;;;4.67;3.03;;;10.00;99.90;;;;;;5054258;28;20583;-44
2022/05/04 04:14:17;;;;;;;4.07;3.70;;;10.30;99.90;;;;;;5054290;28;20488;-44
2022/05/04 04:16:44;;;;;;;2.97;2.77;;;10.40;99.90;;;;;;5054220;28;20464;-44
2022/05/04 04:19:11;;;;;;;2.70;2.50;;;10.60;99.90;;;;;;5054125;28;20560;-45
2022/05/04 04:21:53;;;;;;;6.37;5.00;;;10.70;99.90;;;;;;5054234;28;20441;-43
2022/05/04 04:24:21;;;;;;;5.63;4.77;;;10.80;99.90;;;;;;5053514;28;20448;-45
2022/05/04 04:26:48;;;;;;;5.53;3.73;;;10.90;99.90;;;;;;5053875;28;20523;-46
2022/05/04 04:29:16;;;;;;;6.43;4.40;;;11.00;99.90;;;;;;5053292;28;20440;-44
2022/05/04 04:31:43;;;;;;;5.57;3.47;;;10.90;99.90;;;;;;5053804;28;20445;-43
2022/05/04 04:34:10;;;;;;;5.30;3.53;;;10.80;99.90;;;;;;5053954;28;20473;-48
2022/05/04 04:36:37;;;;;;;3.83;3.13;;;10.80;99.90;;;;;;5053921;28;20487;-45
2022/05/04 04:39:04;;;;;;;6.10;5.60;;;10.90;99.90;;;;;;5053863;28;20769;-43
2022/05/04 04:41:31;;;;;;;4.67;4.17;;;11.00;99.90;;;;;;5053811;28;21078;-46
2022/05/04 04:43:58;;;;;;;4.37;3.97;;;11.00;99.90;;;;;;5053916;28;20517;-44
2022/05/04 04:46:26;;;;;;;2.67;2.47;;;10.80;99.90;;;;;;5053845;28;20500;-45
2022/05/04 04:48:54;;;;;;;2.60;2.40;;;11.00;99.90;;;;;;5053566;28;20510;-45
2022/05/04 04:51:21;;;;;;;8.10;3.50;;;11.20;99.90;;;;;;5053487;28;20537;-44
2022/05/04 04:53:47;;;;;;;4.30;3.10;;;11.20;99.90;;;;;;5053577;28;20529;-45
2022/05/04 04:56:14;;;;;;;3.50;3.20;;;11.30;99.90;;;;;;5053735;28;20549;-44
2022/05/04 04:58:41;;;;;;;5.70;3.93;;;11.40;99.90;;;;;;5053411;28;21025;-44
2022/05/04 05:01:08;;;;;;;4.70;3.53;;;11.50;99.90;;;;;;5053559;28;20519;-44
2022/05/04 05:03:37;;;;;;;3.40;3.10;;;11.50;99.90;;;;;;5052980;28;20536;-46
2022/05/04 05:06:04;;;;;;;3.70;3.10;;;11.50;99.90;;;;;;5053100;28;20560;-45
2022/05/04 05:08:31;;;;;;;3.80;3.30;;;11.10;99.90;;;;;;5053371;28;20472;-45
2022/05/04 05:10:58;;;;;;;3.83;3.40;;;11.00;99.90;;;;;;5053177;28;20445;-44
2022/05/04 05:13:24;;;;;;;4.50;4.10;;;11.10;99.90;;;;;;5052626;28;20934;-48
2022/05/04 05:16:08;;;;;;;5.93;4.60;;;11.30;99.90;;;;;;5053007;28;20462;-44
2022/05/04 05:18:37;;;;;;;4.70;4.20;;;11.40;99.90;;;;;;5052953;28;20477;-44
2022/05/04 05:21:04;;;;;;;7.37;4.67;;;11.40;99.90;;;;;;5052832;28;20473;-44
2022/05/04 05:23:32;;;;;;;5.87;4.03;;;11.50;99.90;;;;;;5052887;28;20957;-45
2022/05/04 05:25:59;;;;;;;4.17;3.70;;;11.40;99.90;;;;;;5053005;28;20500;-44
2022/05/04 05:28:26;;;;;;;5.80;4.20;;;11.50;99.90;;;;;;5052859;28;20473;-47
2022/05/04 05:30:53;;;;;;;4.87;4.47;;;11.50;99.90;;;;;;5052912;28;20441;-44
2022/05/04 05:33:20;;;;;;;3.80;3.30;;;11.50;99.90;;;;;;5052253;28;20926;-43
2022/05/04 05:35:48;;;;;;;7.70;4.13;;;11.40;99.90;;;;;;5052680;28;20481;-44
2022/05/04 05:38:15;;;;;;;3.90;3.20;;;11.10;99.90;;;;;;5052473;28;20477;-44
2022/05/04 05:40:43;;;;;;;4.00;3.63;;;11.00;99.90;;;;;;5052466;28;20468;-48
2022/05/04 05:43:10;;;;;;;5.03;4.53;;;11.10;99.90;;;;;;5052534;28;20453;-44
2022/05/04 05:45:37;;;;;;;4.13;3.80;;;11.30;99.90;;;;;;5052510;28;20499;-48
2022/05/04 05:48:04;;;;;;;4.60;4.20;;;11.50;99.90;;;;;;5052499;28;20516;-44
2022/05/04 05:50:33;;;;;;;4.10;3.70;;;11.60;99.90;;;;;;5052471;28;20485;-46
2022/05/04 05:53:02;;;;;;;5.03;4.53;;;11.60;99.90;;;;;;5052260;28;20441;-44
2022/05/04 05:55:29;;;;;;;7.67;5.47;;;11.50;99.90;;;;;;5052378;28;20441;-44
2022/05/04 05:57:56;;;;;;;5.73;5.23;;;11.30;99.90;;;;;;5052397;28;20461;-44
2022/05/04 06:00:23;;;;;;;5.43;4.90;;;11.50;99.90;;;;;;5052231;28;21051;-44
2022/05/04 06:02:50;;;;;;;4.63;4.23;;;11.60;99.90;;;;;;5052102;28;20491;-48
2022/05/04 06:05:16;;;;;;;4.77;4.37;;;11.50;99.90;;;;;;5052010;28;20982;-44
2022/05/04 06:07:43;;;;;;;5.00;4.03;;;11.60;99.90;;;;;;5138309;22;20518;-45
2022/05/04 06:10:12;;;;;;;4.30;3.77;;;11.70;99.90;;;;;;5092734;28;20456;-46
2022/05/04 06:12:39;;;;;;;5.00;4.50;;;11.70;99.90;;;;;;5091866;28;20526;-46
2022/05/04 06:15:08;;;;;;;7.37;4.57;;;11.60;99.90;;;;;;5092554;28;20505;-46
2022/05/04 06:17:35;;;;;;;5.43;4.90;;;11.50;99.90;;;;;;5092041;28;20520;-46
2022/05/04 06:20:03;;;;;;;4.50;4.10;;;11.50;99.90;;;;;;5091913;28;20510;-46
2022/05/04 06:22:30;;;;;;;5.30;4.80;;;11.50;99.90;;;;;;5092219;28;20526;-45
2022/05/04 06:24:57;;;;;;;7.93;6.30;;;11.50;99.90;;;;;;5091946;28;20471;-46
2022/05/04 06:27:28;;;;;;;8.03;5.90;;;11.60;99.90;;;;;;5092098;28;20497;-45
2022/05/04 06:35:25;;;;;;;5.27;4.40;;;12.00;99.90;;;;;;5092193;28;20564;-45
2022/05/04 06:37:52;;;;;;;5.00;4.50;;;12.10;99.90;;;;;;5091658;28;20683;-46
2022/05/04 06:40:20;;;;;;;6.10;4.17;;;12.10;99.90;;;;;;5092210;28;20529;-46
2022/05/04 06:42:48;;;;;;;4.23;3.47;;;12.20;99.90;;;;;;5091811;28;20455;-45
2022/05/04 06:45:15;;;;;;;3.97;3.10;;;12.20;99.90;;;;;;5091559;28;20467;-46
2022/05/04 06:47:42;;;;;;;8.00;5.30;;;12.10;99.90;;;;;;5091937;28;20456;-45
2022/05/04 06:50:10;;;;;;;5.20;4.63;;;12.20;99.90;;;;;;5091054;28;20920;-43
2022/05/04 06:52:38;;;;;;;4.70;3.10;;;12.20;99.90;;;;;;5091378;28;20462;-46
2022/05/04 06:55:05;;;;;;;5.20;4.20;;;12.40;99.90;;;;;;5091755;28;20439;-46
2022/05/04 06:57:32;;;;;;;17.93;8.13;;;12.40;99.90;;;;;;5091667;28;20546;-46
2022/05/04 07:00:04;;;;;;;6.00;3.43;;;12.30;99.90;;;;;;5091226;28;20483;-49
2022/05/04 07:02:31;;;;;;;32.17;6.43;;;12.10;99.90;;;;;;5091478;28;20447;-45
2022/05/04 07:04:58;;;;;;;7.83;5.03;;;11.90;99.90;;;;;;5091460;28;20508;-46
2022/05/04 07:07:25;;;;;;;7.20;4.43;;;11.80;99.90;;;;;;5091394;28;20918;-45
2022/05/04 07:09:52;;;;;;;7.90;7.07;;;11.80;99.90;;;;;;5091213;28;20463;-46
2022/05/04 07:12:19;;;;;;;6.37;4.30;;;11.90;99.90;;;;;;5090943;28;20805;-48
2022/05/04 07:14:46;;;;;;;7.23;6.13;;;11.90;99.90;;;;;;5091385;28;20448;-47
2022/05/04 07:17:14;;;;;;;13.63;4.60;;;12.00;99.90;;;;;;5091307;28;20502;-46
2022/05/04 07:19:41;;;;;;;6.30;4.37;;;12.10;99.90;;;;;;5091329;28;20475;-45
2022/05/04 07:22:08;;;;;;;4.50;3.00;;;12.10;99.90;;;;;;5091470;28;20865;-46
2022/05/04 07:24:35;;;;;;;3.53;2.70;;;12.20;99.90;;;;;;5091277;28;20478;-51
2022/05/04 07:27:02;;;;;;;5.53;3.40;;;12.30;99.90;;;;;;5091572;28;20505;-46
2022/05/04 07:29:29;;;;;;;5.70;3.10;;;12.40;99.90;;;;;;5091497;28;20439;-46
2022/05/04 07:31:56;;;;;;;3.70;3.40;;;12.50;99.90;;;;;;5091567;28;20908;-46
2022/05/04 07:34:24;;;;;;;2.70;2.40;;;12.50;99.90;;;;;;5090926;28;20444;-46
2022/05/04 07:36:51;;;;;;;5.83;3.77;;;12.60;99.90;;;;;;5090954;28;20534;-46
2022/05/04 07:44:43;;;;;;;3.60;3.20;;;12.70;99.90;;;;;;5091328;28;20900;-45
2022/05/04 07:47:10;;;;;;;3.80;3.40;;;12.80;99.90;;;;;;5090981;28;20463;-46
2022/05/04 07:49:38;;;;;;;6.93;5.63;;;12.90;99.90;;;;;;5091189;28;20473;-46
2022/05/04 07:52:06;;;;;;;10.33;8.13;;;13.20;99.90;;;;;;5091014;28;20490;-46
2022/05/04 07:54:33;;;;;;;5.63;4.70;;;13.60;99.90;;;;;;5090780;28;20939;-46
2022/05/04 07:57:00;;;;;;;7.70;5.87;;;13.80;99.90;;;;;;5091055;28;20487;-46
2022/05/04 07:59:27;;;;;;;5.00;4.53;;;14.40;99.90;;;;;;5091033;28;20503;-46
2022/05/04 08:04:39;;;;;;;11.80;3.93;;;15.70;99.90;;;;;;5094684;28;20423;-47
2022/05/04 08:07:06;;;;;;;55.70;10.80;;;15.30;99.90;;;;;;5094573;28;20470;-47
2022/05/04 08:09:36;;;;;;;5.57;2.90;;;15.30;99.90;;;;;;5094729;28;20488;-47
2022/05/04 08:12:04;;;;;;;10.17;7.83;;;15.40;99.90;;;;;;5094262;28;20865;-46
2022/05/04 08:14:31;;;;;;;5.80;4.50;;;15.20;99.90;;;;;;5094652;28;20447;-46
2022/05/04 08:16:58;;;;;;;12.80;4.57;;;15.30;99.90;;;;;;5094625;28;20550;-48
2022/05/04 08:19:24;;;;;;;22.43;4.10;;;15.30;99.90;;;;;;5094446;28;21098;-48
2022/05/04 08:21:54;;;;;;;7.00;5.00;;;15.40;99.90;;;;;;5094280;28;20443;-47
2022/05/04 08:24:21;;;;;;;6.10;3.17;;;15.30;99.90;;;;;;5093960;28;20450;-44
2022/05/04 08:26:48;;;;;;;3.20;2.33;;;15.40;99.90;;;;;;5094291;28;20830;-47
2022/05/04 08:29:15;;;;;;;8.87;3.20;;;15.50;99.90;;;;;;5094177;28;20979;-48
2022/05/04 08:31:42;;;;;;;4.50;2.97;;;15.80;99.90;;;;;;5094338;28;20435;-47
2022/05/04 08:34:09;;;;;;;9.37;3.73;;;16.10;99.90;;;;;;5094007;28;20522;-46
2022/05/04 08:36:37;;;;;;;7.60;5.17;;;16.40;99.90;;;;;;5093910;28;20967;-46
2022/05/04 08:39:06;;;;;;;14.43;8.70;;;16.60;99.90;;;;;;5094062;28;20468;-46
2022/05/04 08:41:35;;;;;;;7.00;3.90;;;16.90;99.90;;;;;;5094144;28;20435;-46
2022/05/04 08:44:04;;;;;;;8.20;3.10;;;17.10;99.90;;;;;;5093850;28;20442;-47
2022/05/04 08:46:34;;;;;;;21.30;4.17;;;17.10;99.90;;;;;;5094093;28;20824;-46
2022/05/04 08:49:02;;;;;;;33.33;5.60;;;17.10;99.90;;;;;;5093720;28;20936;-46
2022/05/04 08:51:31;;;;;;;4.13;2.80;;;17.10;99.90;;;;;;5093746;28;20508;-47
2022/05/04 08:53:58;;;;;;;5.60;3.23;;;17.00;99.90;;;;;;5093884;28;20443;-47
2022/05/04 08:56:26;;;;;;;3.73;2.23;;;17.00;99.90;;;;;;5093458;28;20455;-48
2022/05/04 08:58:53;;;;;;;6.83;3.90;;;17.10;99.90;;;;;;5093870;28;20490;-46
2022/05/04 09:01:20;;;;;;;4.50;3.10;;;17.20;99.90;;;;;;5093656;28;20828;-46
2022/05/04 09:03:47;;;;;;;4.63;3.53;;;17.30;99.90;;;;;;5093204;28;20508;-49
2022/05/04 09:06:26;;;;;;;5.13;4.67;;;17.50;99.90;;;;;;5093172;28;20924;-47
2022/05/04 09:08:54;;;;;;;23.60;6.17;;;17.50;99.90;;;;;;5093709;28;20931;-46
2022/05/04 09:11:21;;;;;;;17.63;7.17;;;17.40;99.90;;;;;;5093767;28;20463;-46
2022/05/04 09:13:51;;;;;;;7.70;3.67;;;17.20;99.90;;;;;;5092123;28;20541;-43
2022/05/04 09:16:29;;;;;;;4.60;2.80;;;17.30;99.90;;;;;;5093493;28;20475;-51
2022/05/04 09:18:56;;;;;;;10.13;3.77;;;17.40;99.90;;;;;;5093209;28;20496;-47
2022/05/04 09:21:24;;;;;;;61.67;10.70;;;17.60;99.90;;;;;;5093161;28;20591;-47
2022/05/04 09:23:53;;;;;;;8.50;3.40;;;17.60;99.90;;;;;;5092955;28;20618;-49
2022/05/04 09:26:21;;;;;;;5.30;4.27;;;17.60;99.90;;;;;;5093039;28;20907;-46
2022/05/04 09:28:52;;;;;;;34.73;26.07;;;17.60;99.90;;;;;;5093037;28;20475;-46
2022/05/04 09:31:25;;;;;;;7.63;4.67;;;17.80;99.90;;;;;;5092829;28;20440;-47
2022/05/04 09:33:57;;;;;;;9.40;4.33;;;17.80;99.90;;;;;;5092715;28;20449;-46
2022/05/04 09:36:35;;;;;;;3.43;3.10;;;17.90;99.90;;;;;;5092516;28;20463;-47
2022/05/04 09:44:57;;;;;;;3.63;3.07;;;18.20;99.90;;;;;;5092717;28;20414;-47
2022/05/04 09:47:24;;;;;;;4.73;3.10;;;18.30;99.90;;;;;;5092385;28;20828;-49
2022/05/04 09:49:53;;;;;;;3.40;2.80;;;18.20;99.90;;;;;;5092478;28;20436;-46
2022/05/04 09:52:24;;;;;;;7.43;3.47;;;18.30;99.90;;;;;;5092426;28;20453;-46
2022/05/04 09:54:52;;;;;;;13.60;3.33;;;18.30;99.90;;;;;;5092248;28;20450;-46
2022/05/04 09:57:21;;;;;;;4.93;3.47;;;18.30;99.90;;;;;;5092207;28;20826;-47
2022/05/04 09:59:50;;;;;;;3.33;3.03;;;18.40;99.90;;;;;;5092464;28;20475;-46
2022/05/04 10:02:19;;;;;;;3.80;2.97;;;18.50;99.90;;;;;;5092324;28;20448;-49
2022/05/04 10:04:48;;;;;;;3.47;2.87;;;18.50;98.40;;;;;;5092368;28;20492;-46
2022/05/04 10:07:16;;;;;;;4.23;2.70;;;18.20;96.90;;;;;;5092253;28;20475;-47
2022/05/04 10:09:43;;;;;;;3.80;3.30;;;18.00;97.70;;;;;;5092344;28;20436;-47
2022/05/04 10:12:11;;;;;;;3.00;2.70;;;18.00;97.60;;;;;;5091787;28;20471;-49
2022/05/04 10:14:39;;;;;;;3.03;2.83;;;18.00;97.10;;;;;;5092368;28;20790;-47
2022/05/04 10:17:13;;;;;;;3.50;3.10;;;18.00;95.70;;;;;;5092251;28;21018;-48
2022/05/04 10:19:48;;;;;;;4.30;3.47;;;18.00;98.30;;;;;;5092318;28;20483;-49
2022/05/04 10:22:19;;;;;;;6.27;5.40;;;18.00;99.90;;;;;;5092223;28;20496;-47
2022/05/04 10:24:46;;;;;;;4.20;2.93;;;18.00;98.60;;;;;;5092349;28;20493;-47
2022/05/04 10:27:18;;;;;;;5.30;3.20;;;17.90;99.90;;;;;;5091803;28;20971;-49
2022/05/04 10:32:37;;;;;;;3.03;2.70;;;18.00;94.40;;;;;;5091752;28;20422;-52
2022/05/04 10:35:20;;;;;;;8.00;3.20;;;18.00;96.80;;;;;;5091640;28;20951;-46
2022/05/04 10:38:10;;;;;;;3.37;3.07;;;18.00;96.70;;;;;;5091631;28;20967;-47
2022/05/04 10:40:39;;;;;;;3.30;3.00;;;18.00;98.60;;;;;;5091735;28;20467;-46
2022/05/04 10:43:08;;;;;;;3.97;3.57;;;18.10;99.90;;;;;;5091118;28;20522;-46
2022/05/04 10:45:36;;;;;;;4.10;3.60;;;18.10;99.90;;;;;;5090859;28;20463;-46
2022/05/04 10:48:28;;;;;;;3.47;2.87;;;18.20;99.90;;;;;;5090780;28;20512;-47
2022/05/04 10:51:02;;;;;;;3.50;3.20;;;18.20;99.50;;;;;;5091586;28;20474;-47
2022/05/04 10:53:48;;;;;;;5.70;3.60;;;18.20;99.90;;;;;;5091304;28;20439;-46
2022/05/04 10:56:17;;;;;;;2.90;2.60;;;18.30;99.00;;;;;;5091822;28;20443;-49
2022/05/04 10:58:55;;;;;;;3.50;3.20;;;18.40;96.90;;;;;;5091871;28;20467;-46
2022/05/04 11:01:25;;;;;;;3.60;3.30;;;18.50;96.10;;;;;;5091542;28;20493;-48
2022/05/04 11:04:08;;;;;;;14.77;4.27;;;18.50;96.90;;;;;;5089608;28;20970;-47
2022/05/04 11:06:37;;;;;;;7.00;3.50;;;18.50;97.30;;;;;;5090166;28;20467;-47
2022/05/04 11:09:07;;;;;;;11.30;3.57;;;18.40;95.70;;;;;;5091129;28;20493;-46
2022/05/04 11:11:35;;;;;;;8.40;3.70;;;18.30;95.00;;;;;;5091029;28;20497;-48
2022/05/04 11:14:04;;;;;;;10.43;4.20;;;18.20;98.10;;;;;;5090945;28;20440;-47
2022/05/04 11:16:31;;;;;;;4.10;3.50;;;18.40;98.00;;;;;;5091536;28;20489;-47
2022/05/04 11:18:59;;;;;;;3.50;3.10;;;18.50;96.60;;;;;;5091455;28;20467;-47
2022/05/04 11:21:29;;;;;;;3.30;3.00;;;18.60;98.00;;;;;;5091126;28;20537;-47
2022/05/04 11:23:59;;;;;;;4.40;3.30;;;18.80;96.40;;;;;;5091203;28;20442;-49
2022/05/04 11:26:28;;;;;;;11.77;4.43;;;19.00;97.00;;;;;;5091049;28;20515;-50
2022/05/04 11:28:55;;;;;;;5.60;3.33;;;18.80;94.50;;;;;;5091459;28;20501;-49
2022/05/04 11:31:22;;;;;;;4.67;3.40;;;18.70;94.90;;;;;;5091407;28;20443;-46
2022/05/04 11:33:50;;;;;;;12.83;3.90;;;18.70;95.70;;;;;;5091151;28;20452;-47
2022/05/04 11:36:22;;;;;;;4.50;3.13;;;18.80;97.40;;;;;;5091195;28;20443;-47
2022/05/04 11:38:50;;;;;;;9.37;4.97;;;18.90;95.10;;;;;;5095187;28;20475;-46
2022/05/04 11:41:19;;;;;;;10.47;3.73;;;19.00;94.90;;;;;;5095425;28;20511;-47
2022/05/04 11:43:48;;;;;;;14.10;4.30;;;19.00;95.30;;;;;;5095243;28;20447;-43
2022/05/04 11:46:16;;;;;;;6.83;3.33;;;19.00;95.90;;;;;;5094855;28;20871;-51
2022/05/04 11:48:45;;;;;;;7.20;4.07;;;19.20;94.90;;;;;;5095261;28;20478;-46
2022/05/04 11:51:15;;;;;;;5.50;3.40;;;19.10;93.90;;;;;;5095261;28;20471;-47
2022/05/04 11:53:42;;;;;;;3.43;3.10;;;19.00;93.80;;;;;;5094761;28;20452;-47
2022/05/04 11:56:11;;;;;;;3.60;3.23;;;19.00;94.70;;;;;;5094902;28;20465;-48
2022/05/04 11:58:40;;;;;;;4.77;3.40;;;18.90;93.70;;;;;;5095043;28;20530;-46
2022/05/04 12:01:08;;;;;;;5.13;3.90;;;18.90;92.90;;;;;;5094782;28;20475;-47
2022/05/04 12:03:38;;;;;;;5.67;4.33;;;18.80;91.60;;;;;;5094582;28;20447;-46
2022/05/04 12:06:09;;;;;;;3.53;3.23;;;18.90;93.40;;;;;;5094759;28;20444;-47
2022/05/04 12:08:37;;;;;;;3.37;3.07;;;18.90;94.40;;;;;;5137187;22;20492;-42
2022/05/04 12:11:06;;;;;;;6.30;3.37;;;18.80;93.50;;;;;;5074073;28;20438;-47
2022/05/04 12:13:35;;;;;;;4.80;4.30;;;18.80;93.70;;;;;;5073776;28;20925;-44
2022/05/04 12:16:04;;;;;;;3.73;3.33;;;18.90;92.60;;;;;;5074284;28;20478;-44
2022/05/04 12:18:33;;;;;;;7.13;3.40;;;18.90;93.30;;;;;;5074201;28;20456;-45
2022/05/04 12:21:05;;;;;;;4.67;2.90;;;18.90;94.70;;;;;;5074180;28;20547;-47
2022/05/04 12:23:33;;;;;;;3.87;3.20;;;18.90;95.60;;;;;;5073798;28;20472;-47
2022/05/04 12:26:00;;;;;;;4.77;3.83;;;18.90;92.10;;;;;;5074193;28;20472;-44
2022/05/04 12:28:27;;;;;;;3.90;3.50;;;18.80;93.30;;;;;;5073612;28;20499;-47
2022/05/04 12:33:40;;;;;;;3.30;3.00;;;18.70;94.60;;;;;;5073783;28;20624;-44
2022/05/04 12:36:09;;;;;;;4.57;3.30;;;18.70;94.70;;;;;;5074119;28;20489;-43
2022/05/04 12:38:37;;;;;;;3.80;3.50;;;18.60;93.30;;;;;;5073449;28;20882;-44
2022/05/04 12:41:05;;;;;;;6.83;3.27;;;18.60;94.80;;;;;;5073605;28;20477;-47
2022/05/04 12:43:34;;;;;;;3.43;3.07;;;18.60;94.00;;;;;;5073852;28;20483;-45
2022/05/04 12:46:03;;;;;;;2.80;2.60;;;18.60;94.40;;;;;;5073770;28;20967;-46
2022/05/04 12:48:30;;;;;;;3.80;3.23;;;18.60;93.60;;;;;;5072275;28;20460;-47
2022/05/04 12:50:59;;;;;;;2.90;2.70;;;18.60;96.00;;;;;;5073838;28;20491;-41
2022/05/04 12:53:27;;;;;;;7.70;3.77;;;18.60;95.20;;;;;;5073318;28;20498;-45
2022/05/04 12:58:40;;;;;;;7.90;7.10;;;18.60;96.60;;;;;;5073898;28;20971;-44
2022/05/04 13:01:07;;;;;;;19.30;5.63;;;18.60;94.70;;;;;;5073661;28;20526;-46
2022/05/04 13:03:34;;;;;;;6.13;3.37;;;18.70;94.40;;;;;;5073246;28;20493;-45
2022/05/04 13:06:03;;;;;;;12.93;8.60;;;18.70;94.20;;;;;;5073219;28;20440;-45
2022/05/04 13:08:30;;;;;;;5.30;3.90;;;18.70;95.30;;;;;;5073352;28;20478;-45
2022/05/04 13:10:58;;;;;;;4.40;2.70;;;18.70;95.70;;;;;;5073303;28;20447;-45
2022/05/04 13:13:26;;;;;;;2.90;2.47;;;18.70;93.30;;;;;;5073231;28;20436;-49
2022/05/04 13:15:53;;;;;;;3.57;2.47;;;18.70;91.70;;;;;;5073496;28;20446;-43
2022/05/04 13:18:21;;;;;;;3.93;2.43;;;18.70;94.00;;;;;;5073046;28;20502;-45
2022/05/04 13:20:48;;;;;;;4.33;2.53;;;18.70;93.60;;;;;;5073483;28;20916;-45
2022/05/04 13:23:16;;;;;;;2.60;2.40;;;18.70;92.00;;;;;;5073376;28;20582;-47